Time;durP1;ratioP1;P1;durP2;ratioP2;P2;SDS_P1;SDS_P2;PMS_P1;PMS_P2;Temp;Humidity;BMP_temperature;BMP_pressure;BME280_temperature;BME280_humidity;BME280_pressure;Samples;Min_cycle;Max_cycle;Signal;HPM_P1;HPM_P2
2022/03/02 00:02:06;;;;;;;24.63;16.80;;;5.60;24.30;;;;;;2613067;54;20396;-73
2022/03/02 00:04:32;;;;;;;24.50;16.93;;;5.40;25.20;;;;;;2613355;54;20397;-73
2022/03/02 00:06:58;;;;;;;25.00;15.80;;;5.60;24.80;;;;;;2614109;54;20459;-75
2022/03/02 00:09:23;;;;;;;18.47;15.87;;;5.70;23.50;;;;;;2613152;47;20166;-72
2022/03/02 00:11:49;;;;;;;24.07;16.53;;;5.70;20.10;;;;;;2612951;54;20406;-75
2022/03/02 00:14:15;;;;;;;23.67;16.53;;;5.80;22.40;;;;;;2611168;47;20177;-74
2022/03/02 00:16:41;;;;;;;32.87;16.93;;;5.90;23.20;;;;;;2614645;54;20167;-73
2022/03/02 00:19:08;;;;;;;29.83;15.70;;;5.90;22.70;;;;;;2611964;47;20444;-74
2022/03/02 00:21:35;;;;;;;24.37;16.10;;;5.90;20.00;;;;;;2613099;54;20242;-74
2022/03/02 00:24:03;;;;;;;26.33;16.30;;;5.80;20.90;;;;;;2612155;54;20411;-74
2022/03/02 00:26:33;;;;;;;18.83;14.13;;;5.80;20.60;;;;;;2610228;46;20443;-74
2022/03/02 00:28:59;;;;;;;22.47;14.53;;;5.60;21.10;;;;;;2611301;54;20445;-73
2022/03/02 00:31:25;;;;;;;19.63;14.13;;;5.60;21.60;;;;;;2612257;54;20962;-73
2022/03/02 00:33:51;;;;;;;20.63;15.80;;;5.70;18.00;;;;;;2612465;50;20419;-74
2022/03/02 00:36:17;;;;;;;19.57;14.40;;;5.70;15.90;;;;;;2611774;46;20617;-74
2022/03/02 00:38:43;;;;;;;17.03;12.20;;;5.70;16.00;;;;;;2613291;54;20391;-74
2022/03/02 00:41:09;;;;;;;25.00;14.63;;;5.70;14.20;;;;;;2613324;54;20157;-74
2022/03/02 00:43:35;;;;;;;20.00;14.53;;;5.50;16.70;;;;;;2613596;54;21081;-74
2022/03/02 00:46:01;;;;;;;23.47;15.27;;;5.30;15.20;;;;;;2611714;54;20573;-74
2022/03/02 00:48:27;;;;;;;17.77;13.20;;;5.20;13.90;;;;;;2610486;54;20503;-74
2022/03/02 00:50:53;;;;;;;21.83;14.50;;;5.30;13.30;;;;;;2610864;54;20419;-74
2022/03/02 00:53:19;;;;;;;20.07;13.33;;;5.30;15.20;;;;;;2613159;54;20392;-73
2022/03/02 00:55:45;;;;;;;20.97;13.83;;;5.30;14.80;;;;;;2611106;54;20426;-74
2022/03/02 00:58:11;;;;;;;19.10;14.17;;;5.30;15.00;;;;;;2610461;54;20427;-74
2022/03/02 01:00:37;;;;;;;20.90;15.00;;;5.20;17.70;;;;;;2610391;54;20487;-74
2022/03/02 01:03:04;;;;;;;23.87;13.33;;;5.10;17.70;;;;;;2611390;54;20418;-75
2022/03/02 01:05:29;;;;;;;19.50;14.00;;;5.10;17.70;;;;;;2610825;47;20423;-74
2022/03/02 01:07:55;;;;;;;19.57;13.60;;;5.10;17.70;;;;;;2610453;54;20459;-74
2022/03/02 01:10:22;;;;;;;19.73;14.30;;;4.80;21.30;;;;;;2610524;54;20483;-74
2022/03/02 01:12:47;;;;;;;18.83;13.83;;;4.80;22.50;;;;;;2611157;54;20502;-74
2022/03/02 01:15:14;;;;;;;16.23;13.03;;;4.80;22.80;;;;;;2610175;47;21000;-74
2022/03/02 01:17:40;;;;;;;18.90;13.53;;;4.50;23.00;;;;;;2610523;47;20165;-74
2022/03/02 01:20:08;;;;;;;18.00;13.73;;;4.60;23.60;;;;;;2613949;54;20415;-74
2022/03/02 01:22:34;;;;;;;26.20;13.87;;;4.50;24.00;;;;;;2612454;54;20895;-74
2022/03/02 01:25:01;;;;;;;20.37;14.90;;;4.50;25.20;;;;;;2614050;54;20932;-74
2022/03/02 01:27:27;;;;;;;22.00;14.60;;;4.20;29.30;;;;;;2612256;54;20391;-73
2022/03/02 01:29:53;;;;;;;22.83;14.00;;;4.30;30.90;;;;;;2614114;54;20423;-73
2022/03/02 01:32:19;;;;;;;21.20;13.73;;;;;;;;;;2612201;54;20446;-72
2022/03/02 01:34:45;;;;;;;22.53;12.10;;;;;;;;;;2613224;54;20190;-74
2022/03/02 01:37:11;;;;;;;24.03;14.60;;;3.90;31.90;;;;;;2611529;47;20423;-74
2022/03/02 01:39:37;;;;;;;21.80;14.30;;;3.90;31.00;;;;;;2613098;39;21239;-74
2022/03/02 01:42:05;;;;;;;23.57;15.60;;;3.90;28.90;;;;;;2612566;54;20455;-74
2022/03/02 01:44:33;;;;;;;24.00;14.70;;;3.80;28.30;;;;;;2611614;54;20150;-74
2022/03/02 01:46:59;;;;;;;21.70;13.87;;;3.80;28.10;;;;;;2610182;54;20442;-74
2022/03/02 01:49:25;;;;;;;29.53;14.50;;;3.70;31.80;;;;;;2615078;54;20387;-74
2022/03/02 01:51:51;;;;;;;20.70;12.87;;;3.70;33.40;;;;;;2612102;47;20419;-74
2022/03/02 01:54:18;;;;;;;23.40;16.70;;;3.70;33.80;;;;;;2612802;54;20396;-73
2022/03/02 01:56:44;;;;;;;21.53;13.87;;;;;;;;;;2611110;54;20411;-72
2022/03/02 01:59:10;;;;;;;24.17;13.03;;;3.50;40.70;;;;;;2613949;54;20586;-74
2022/03/02 02:01:40;;;;;;;28.73;15.43;;;3.50;43.60;;;;;;2613062;39;20879;-75
2022/03/02 02:04:06;;;;;;;20.50;14.87;;;3.60;40.30;;;;;;2611428;47;20427;-74
2022/03/02 02:06:32;;;;;;;19.60;14.00;;;3.70;36.10;;;;;;2613158;39;20825;-73
2022/03/02 02:08:59;;;;;;;21.00;12.87;;;3.40;54.40;;;;;;2611029;39;20660;-75
2022/03/02 02:11:25;;;;;;;20.40;13.60;;;3.50;38.60;;;;;;2608133;39;20755;-74
2022/03/02 02:13:51;;;;;;;20.17;13.23;;;3.50;42.30;;;;;;2612520;46;20411;-75
2022/03/02 02:16:20;;;;;;;20.50;14.73;;;3.60;45.00;;;;;;2614036;39;20989;-74
2022/03/02 02:18:47;;;;;;;22.03;13.23;;;3.40;47.70;;;;;;2613620;47;20177;-73
2022/03/02 02:21:12;;;;;;;19.17;13.97;;;3.40;47.30;;;;;;2613513;54;20737;-73
2022/03/02 02:23:39;;;;;;;28.27;14.73;;;3.30;52.40;;;;;;2612969;54;20554;-74
2022/03/02 02:26:06;;;;;;;24.63;13.80;;;3.40;50.90;;;;;;2608100;39;20790;-75
2022/03/02 02:28:32;;;;;;;19.57;14.30;;;3.40;47.80;;;;;;2608042;54;20880;-73
2022/03/02 02:31:00;;;;;;;19.60;14.93;;;3.30;48.70;;;;;;2612563;54;20510;-73
2022/03/02 02:33:27;;;;;;;25.53;15.93;;;3.30;50.40;;;;;;2613814;39;20463;-73
2022/03/02 02:35:53;;;;;;;23.37;13.73;;;3.30;52.40;;;;;;2611890;54;20434;-74
2022/03/02 02:38:21;;;;;;;19.00;13.43;;;3.40;53.40;;;;;;2608433;39;20835;-75
2022/03/02 02:40:48;;;;;;;18.77;12.93;;;3.40;52.40;;;;;;2614117;54;20387;-74
2022/03/02 02:43:16;;;;;;;16.03;11.83;;;3.30;52.10;;;;;;2611112;54;20444;-75
2022/03/02 02:45:42;;;;;;;19.10;13.93;;;3.20;52.30;;;;;;2612906;54;20440;-73
2022/03/02 02:48:08;;;;;;;19.63;13.00;;;3.20;52.30;;;;;;2609151;54;20495;-75
2022/03/02 02:50:34;;;;;;;16.93;12.80;;;3.40;53.10;;;;;;2612398;54;20280;-75
2022/03/02 02:53:04;;;;;;;21.33;12.47;;;3.50;52.60;;;;;;2612585;47;20404;-73
2022/03/02 02:55:30;;;;;;;17.90;13.07;;;3.40;52.70;;;;;;2609914;54;20487;-73
2022/03/02 02:57:57;;;;;;;18.70;12.57;;;3.50;54.80;;;;;;2609045;54;20472;-73
2022/03/02 03:00:26;;;;;;;17.33;13.13;;;3.40;56.00;;;;;;2611030;47;20403;-74
2022/03/02 03:02:53;;;;;;;17.30;12.70;;;3.50;57.10;;;;;;2611558;54;20408;-73
2022/03/02 03:05:21;;;;;;;19.53;14.10;;;3.50;58.80;;;;;;2611414;54;20428;-73
2022/03/02 03:07:48;;;;;;;17.40;12.40;;;3.50;58.30;;;;;;2613811;54;20470;-74
2022/03/02 03:10:15;;;;;;;17.37;12.10;;;3.50;59.10;;;;;;2614123;54;20928;-74
2022/03/02 03:12:44;;;;;;;21.47;14.10;;;3.40;59.10;;;;;;2613814;47;20395;-73
2022/03/02 03:15:11;;;;;;;19.10;13.13;;;3.20;64.60;;;;;;2613742;54;20518;-75
2022/03/02 03:17:38;;;;;;;23.40;13.30;;;3.40;62.80;;;;;;2611711;39;20776;-73
2022/03/02 03:20:07;;;;;;;18.73;12.87;;;3.40;58.70;;;;;;2611090;39;20519;-74
2022/03/02 03:22:33;;;;;;;14.60;11.93;;;3.40;57.40;;;;;;2613519;54;20392;-75
2022/03/02 03:24:59;;;;;;;21.00;12.57;;;3.50;58.30;;;;;;2612587;47;20999;-74
2022/03/02 03:27:25;;;;;;;18.43;12.27;;;3.60;60.00;;;;;;2612808;54;20155;-73
2022/03/02 03:29:50;;;;;;;15.67;10.97;;;3.60;59.90;;;;;;2612796;39;20780;-74
2022/03/02 03:32:16;;;;;;;22.97;13.53;;;3.50;60.60;;;;;;2610613;54;20423;-75
2022/03/02 03:34:42;;;;;;;22.00;12.30;;;3.50;60.90;;;;;;2614216;54;20143;-73
2022/03/02 03:37:08;;;;;;;14.50;12.50;;;3.40;63.80;;;;;;2612519;39;20970;-74
2022/03/02 03:39:34;;;;;;;24.40;13.30;;;3.40;62.90;;;;;;2613404;54;20602;-73
2022/03/02 03:42:00;;;;;;;17.83;12.70;;;3.30;61.20;;;;;;2615405;54;20928;-74
2022/03/02 03:44:26;;;;;;;16.37;12.20;;;3.40;59.70;;;;;;2612934;39;20913;-73
2022/03/02 03:46:52;;;;;;;22.63;14.53;;;3.50;58.70;;;;;;2615532;54;20223;-76
2022/03/02 03:49:18;;;;;;;23.57;13.27;;;3.40;61.60;;;;;;2611858;54;20195;-72
2022/03/02 03:51:45;;;;;;;19.33;12.87;;;3.40;61.40;;;;;;2613217;54;20396;-74
2022/03/02 03:54:11;;;;;;;22.83;12.83;;;3.40;61.80;;;;;;2612389;54;20470;-74
2022/03/02 03:56:37;;;;;;;23.90;13.40;;;3.40;61.70;;;;;;2612115;54;20562;-73
2022/03/02 03:59:04;;;;;;;18.77;12.70;;;3.40;63.30;;;;;;2612032;54;20412;-75
2022/03/02 04:01:29;;;;;;;21.60;14.30;;;3.30;62.50;;;;;;2613152;47;20547;-74
2022/03/02 04:03:55;;;;;;;19.90;14.53;;;3.40;61.70;;;;;;2610246;54;20404;-75
2022/03/02 04:06:21;;;;;;;20.70;12.90;;;3.30;60.40;;;;;;2613479;54;20270;-74
2022/03/02 04:08:47;;;;;;;19.40;14.47;;;3.30;62.20;;;;;;2611987;47;20447;-74
2022/03/02 04:11:13;;;;;;;15.83;12.20;;;3.40;59.40;;;;;;2614498;54;20243;-74
2022/03/02 04:13:39;;;;;;;16.97;13.67;;;3.30;59.10;;;;;;2612070;54;20427;-74
2022/03/02 04:16:06;;;;;;;23.90;13.70;;;3.30;58.60;;;;;;2609963;54;20151;-74
2022/03/02 04:18:32;;;;;;;20.67;13.20;;;3.10;58.30;;;;;;2613315;54;20162;-74
2022/03/02 04:20:58;;;;;;;18.37;13.50;;;3.20;56.00;;;;;;2612891;54;21082;-74
2022/03/02 04:23:25;;;;;;;19.63;13.60;;;3.00;58.30;;;;;;2612935;54;20520;-74
2022/03/02 04:25:51;;;;;;;21.10;13.87;;;2.90;65.00;;;;;;2611757;51;20430;-74
2022/03/02 04:28:18;;;;;;;18.93;12.80;;;2.90;68.70;;;;;;2610102;54;20499;-75
2022/03/02 04:30:44;;;;;;;26.23;15.00;;;2.90;71.20;;;;;;2612888;54;20423;-73
2022/03/02 04:33:10;;;;;;;21.33;13.17;;;2.90;70.10;;;;;;2612470;54;20419;-73
2022/03/02 04:35:36;;;;;;;23.40;15.50;;;2.80;70.90;;;;;;2611806;54;20459;-76
2022/03/02 04:38:03;;;;;;;22.43;15.17;;;2.70;75.00;;;;;;2611094;54;20957;-76
2022/03/02 04:40:29;;;;;;;22.17;13.33;;;2.60;78.60;;;;;;2613124;39;20803;-76
2022/03/02 04:42:56;;;;;;;21.70;14.17;;;2.60;83.40;;;;;;2610187;54;20514;-74
2022/03/02 04:45:27;;;;;;;17.77;14.10;;;2.60;86.10;;;;;;2611556;54;21198;-74
2022/03/02 04:47:53;;;;;;;21.47;14.23;;;2.50;85.80;;;;;;2610191;54;21247;-75
2022/03/02 04:50:20;;;;;;;22.40;15.23;;;2.50;86.00;;;;;;2614004;39;20958;-74
2022/03/02 04:52:47;;;;;;;20.27;12.90;;;2.40;85.80;;;;;;2609897;39;20865;-75
2022/03/02 04:55:13;;;;;;;15.30;12.57;;;2.40;84.60;;;;;;2611053;39;21232;-75
2022/03/02 04:57:44;;;;;;;15.60;12.20;;;2.40;83.20;;;;;;2611345;54;20439;-74
2022/03/02 05:00:21;;;;;;;24.77;13.10;;;2.40;83.70;;;;;;2612957;54;20411;-74
2022/03/02 05:02:47;;;;;;;19.23;13.40;;;2.40;85.90;;;;;;2613525;54;20491;-75
2022/03/02 05:05:15;;;;;;;22.40;14.60;;;2.40;87.20;;;;;;2612681;54;20413;-75
2022/03/02 05:07:43;;;;;;;21.57;13.57;;;2.30;89.80;;;;;;2611527;47;20875;-74
2022/03/02 05:10:10;;;;;;;18.97;13.53;;;2.20;91.00;;;;;;2613668;54;20432;-74
2022/03/02 05:12:37;;;;;;;18.60;13.30;;;2.20;92.90;;;;;;2611407;54;20417;-75
2022/03/02 05:15:04;;;;;;;18.60;13.13;;;2.20;94.70;;;;;;2613686;39;20807;-74
2022/03/02 05:17:30;;;;;;;21.90;13.83;;;2.10;94.10;;;;;;2611284;54;20562;-74
2022/03/02 05:19:56;;;;;;;23.90;15.70;;;2.00;96.50;;;;;;2613846;54;20490;-74
2022/03/02 05:22:22;;;;;;;19.67;14.40;;;2.00;98.20;;;;;;2613131;54;20511;-74
2022/03/02 05:24:48;;;;;;;19.80;13.70;;;2.00;99.90;;;;;;2614421;54;20987;-74
2022/03/02 05:27:14;;;;;;;20.30;13.00;;;2.10;99.90;;;;;;2612945;54;20154;-75
2022/03/02 05:29:40;;;;;;;18.30;14.13;;;2.00;99.90;;;;;;2608454;54;20457;-74
2022/03/02 05:32:07;;;;;;;24.43;13.97;;;2.00;99.90;;;;;;2608862;54;21061;-74
2022/03/02 05:34:33;;;;;;;23.53;14.70;;;1.90;99.90;;;;;;2608141;54;20454;-74
2022/03/02 05:36:59;;;;;;;25.17;14.67;;;1.90;99.90;;;;;;2611823;47;20498;-74
2022/03/02 05:39:25;;;;;;;21.70;14.27;;;1.90;99.90;;;;;;2613016;46;20410;-74
2022/03/02 05:41:53;;;;;;;22.33;14.00;;;2.00;99.90;;;;;;2611656;54;20154;-74
2022/03/02 05:44:19;;;;;;;26.70;14.00;;;1.90;99.90;;;;;;2612550;47;20849;-74
2022/03/02 05:46:45;;;;;;;23.83;14.80;;;1.80;99.90;;;;;;2613300;54;20419;-73
2022/03/02 05:49:13;;;;;;;24.03;13.70;;;1.80;99.90;;;;;;2609469;54;20546;-73
2022/03/02 05:51:39;;;;;;;17.20;12.07;;;1.70;99.90;;;;;;2611701;54;20404;-74
2022/03/02 05:54:08;;;;;;;24.07;15.20;;;1.80;99.90;;;;;;2610905;47;20503;-73
2022/03/02 05:56:37;;;;;;;23.43;13.77;;;1.70;99.90;;;;;;2611571;54;20412;-73
2022/03/02 05:59:04;;;;;;;18.57;13.60;;;1.60;99.90;;;;;;2609935;54;20427;-75
2022/03/02 06:01:31;;;;;;;18.47;14.70;;;1.60;99.90;;;;;;2610469;54;20507;-74
2022/03/02 06:03:57;;;;;;;21.47;14.33;;;1.60;99.90;;;;;;2610933;54;21067;-74
2022/03/02 06:06:24;;;;;;;22.93;14.13;;;1.40;99.90;;;;;;2607861;54;20442;-73
2022/03/02 06:08:50;;;;;;;26.57;16.47;;;1.40;99.90;;;;;;2607711;46;20434;-74
2022/03/02 06:11:16;;;;;;;21.47;15.37;;;1.50;99.90;;;;;;2607344;54;20425;-74
2022/03/02 06:13:42;;;;;;;22.50;14.83;;;1.60;99.90;;;;;;2605246;54;20564;-73
2022/03/02 06:16:09;;;;;;;20.40;15.77;;;1.70;99.90;;;;;;2608990;54;20428;-74
2022/03/02 06:18:36;;;;;;;21.20;14.20;;;1.90;99.90;;;;;;2609654;54;20408;-74
2022/03/02 06:21:02;;;;;;;20.97;14.63;;;2.10;99.90;;;;;;2612352;39;20801;-76
2022/03/02 06:23:29;;;;;;;19.97;14.33;;;2.20;99.90;;;;;;2611792;54;20396;-73
2022/03/02 06:25:55;;;;;;;24.70;13.57;;;2.20;99.90;;;;;;2612773;54;20416;-74
2022/03/02 06:28:21;;;;;;;24.03;13.63;;;2.30;99.50;;;;;;2612199;54;20956;-74
2022/03/02 06:30:48;;;;;;;18.20;13.33;;;2.40;97.20;;;;;;2610164;54;20419;-78
2022/03/02 06:33:18;;;;;;;18.30;13.13;;;2.50;96.30;;;;;;2611922;54;20415;-74
2022/03/02 06:35:46;;;;;;;20.73;13.50;;;2.70;96.20;;;;;;2608968;54;20419;-77
2022/03/02 06:38:13;;;;;;;20.47;13.00;;;2.80;93.50;;;;;;2610743;46;20554;-74
2022/03/02 06:40:55;;;;;;;20.03;14.40;;;2.90;92.70;;;;;;2611532;54;20412;-75
2022/03/02 06:43:22;;;;;;;18.80;12.80;;;3.00;81.40;;;;;;2613784;39;20809;-74
2022/03/02 06:46:16;;;;;;;31.73;14.53;;;3.00;70.20;;;;;;2613128;54;20994;-74
2022/03/02 06:48:55;;;;;;;22.67;13.90;;;3.20;65.50;;;;;;2607624;54;20422;-75
2022/03/02 06:51:22;;;;;;;23.77;12.47;;;3.40;54.00;;;;;;2609203;39;20442;-75
2022/03/02 06:53:51;;;;;;;22.60;13.40;;;3.50;51.00;;;;;;2609778;54;20424;-74
2022/03/02 06:56:19;;;;;;;20.73;14.30;;;3.60;47.60;;;;;;2663130;36;20467;-76
2022/03/02 06:58:51;;;;;;;22.13;12.70;;;3.70;46.80;;;;;;2609564;54;20464;-75
2022/03/02 07:01:26;;;;;;;28.03;15.37;;;3.80;44.00;;;;;;2609624;54;20983;-75
2022/03/02 07:03:55;;;;;;;27.50;13.93;;;3.80;43.50;;;;;;2609901;54;20425;-75
2022/03/02 07:06:22;;;;;;;19.33;14.37;;;3.90;42.20;;;;;;2606967;54;20448;-76
2022/03/02 07:08:51;;;;;;;18.80;12.50;;;3.90;41.10;;;;;;2605645;54;20430;-75
2022/03/02 07:11:17;;;;;;;24.10;13.03;;;3.90;41.20;;;;;;2605933;54;21086;-75
2022/03/02 07:13:47;;;;;;;17.37;12.77;;;3.90;41.70;;;;;;2607707;39;20776;-74
2022/03/02 07:16:14;;;;;;;23.27;13.37;;;3.90;43.00;;;;;;2606093;54;22343;-74
2022/03/02 07:18:40;;;;;;;20.80;13.83;;;3.90;43.20;;;;;;2605873;50;21000;-73
2022/03/02 07:21:11;;;;;;;23.20;13.67;;;3.90;42.30;;;;;;2608288;39;20830;-74
2022/03/02 07:23:42;;;;;;;23.03;12.97;;;3.90;41.40;;;;;;2607135;47;20428;-75
2022/03/02 07:26:09;;;;;;;20.67;13.17;;;4.00;42.60;;;;;;2607313;54;20527;-75
2022/03/02 07:28:39;;;;;;;20.83;15.10;;;4.10;43.40;;;;;;2608836;47;20418;-75
2022/03/02 07:31:09;;;;;;;15.80;12.50;;;4.60;42.50;;;;;;2608115;54;20466;-76
2022/03/02 07:33:41;;;;;;;14.00;12.07;;;5.30;32.40;;;;;;2605765;54;20434;-75
2022/03/02 07:36:09;;;;;;;21.80;13.50;;;6.10;25.60;;;;;;2607237;54;20955;-75
2022/03/02 07:38:36;;;;;;;17.40;13.90;;;7.00;18.90;;;;;;2606588;46;20415;-76
2022/03/02 07:41:08;;;;;;;24.17;14.77;;;7.70;14.20;;;;;;2608542;46;20622;-76
2022/03/02 07:43:38;;;;;;;19.23;13.90;;;8.40;9.50;;;;;;2607918;54;20413;-75
2022/03/02 07:46:06;;;;;;;17.70;13.13;;;9.00;6.40;;;;;;2607650;39;20803;-75
2022/03/02 07:48:32;;;;;;;18.53;14.53;;;9.60;2.30;;;;;;2608512;54;20964;-74
2022/03/02 07:51:01;;;;;;;20.93;14.20;;;9.30;2.50;;;;;;2609047;54;20404;-74
2022/03/02 07:53:38;;;;;;;17.73;12.77;;;9.10;2.30;;;;;;2609112;54;20420;-76
2022/03/02 07:56:04;;;;;;;18.00;14.13;;;9.40;1.60;;;;;;2610834;54;20383;-75
2022/03/02 07:58:30;;;;;;;16.33;13.13;;;10.20;1.00;;;;;;2609596;50;20423;-75
2022/03/02 08:00:59;;;;;;;21.17;14.37;;;10.80;1.00;;;;;;2608620;54;20419;-75
2022/03/02 08:03:27;;;;;;;24.43;13.77;;;11.60;1.00;;;;;;2610967;54;20975;-76
2022/03/02 08:05:59;;;;;;;18.33;14.83;;;11.80;1.00;;;;;;2611578;54;20391;-74
2022/03/02 08:08:26;;;;;;;18.70;15.07;;;12.20;1.00;;;;;;2609335;54;20508;-76
2022/03/02 08:10:56;;;;;;;19.73;15.80;;;12.50;1.00;;;;;;2609944;46;21023;-75
2022/03/02 08:13:23;;;;;;;16.20;14.50;;;12.50;1.00;;;;;;2611016;39;20820;-76
2022/03/02 08:15:50;;;;;;;16.23;14.53;;;13.10;1.00;;;;;;2609043;47;20459;-75
2022/03/02 08:18:17;;;;;;;22.13;15.67;;;13.60;1.00;;;;;;2609589;54;20456;-76
2022/03/02 08:20:51;;;;;;;16.77;13.50;;;13.30;1.00;;;;;;2609834;39;20781;-76
2022/03/02 08:23:22;;;;;;;15.97;14.33;;;13.30;1.00;;;;;;2608084;54;20404;-76
2022/03/02 08:25:52;;;;;;;17.73;14.83;;;12.40;1.00;;;;;;2609238;54;20419;-76
2022/03/02 08:28:20;;;;;;;16.67;13.10;;;11.80;1.00;;;;;;2610171;54;21176;-76
2022/03/02 08:30:49;;;;;;;14.47;13.07;;;11.80;1.00;;;;;;2609276;54;20427;-76
2022/03/02 08:33:25;;;;;;;15.77;14.23;;;12.70;1.00;;;;;;2608824;54;20515;-76
2022/03/02 08:35:52;;;;;;;17.17;15.13;;;12.70;1.00;;;;;;2610172;54;20419;-75
2022/03/02 08:38:18;;;;;;;16.53;14.70;;;12.00;1.00;;;;;;2607345;39;21289;-75
2022/03/02 08:40:44;;;;;;;15.47;13.90;;;11.50;1.00;;;;;;2608946;47;20408;-77
2022/03/02 08:43:12;;;;;;;15.57;14.03;;;12.40;1.00;;;;;;2609870;54;20522;-76
2022/03/02 08:45:38;;;;;;;16.50;13.63;;;13.30;1.00;;;;;;2608695;54;20415;-76
2022/03/02 08:48:05;;;;;;;17.10;14.77;;;14.00;1.00;;;;;;2609055;54;20920;-75
2022/03/02 08:50:31;;;;;;;20.53;15.20;;;13.80;1.00;;;;;;2609747;54;20158;-76
2022/03/02 08:52:57;;;;;;;17.50;14.63;;;14.20;1.00;;;;;;2608910;54;21526;-76
2022/03/02 08:55:27;;;;;;;13.90;12.60;;;14.30;1.00;;;;;;2609258;54;20411;-76
2022/03/02 08:57:55;;;;;;;14.33;12.93;;;14.50;1.00;;;;;;2609601;47;20447;-76
2022/03/02 09:00:21;;;;;;;15.40;13.77;;;14.80;1.00;;;;;;2609445;54;20387;-76
2022/03/02 09:02:47;;;;;;;14.87;13.47;;;13.90;1.00;;;;;;2610014;54;20388;-75
2022/03/02 09:05:13;;;;;;;20.07;16.90;;;14.20;1.00;;;;;;2610117;54;20178;-76
2022/03/02 09:07:41;;;;;;;17.00;14.90;;;13.80;1.00;;;;;;2608801;54;20432;-76
2022/03/02 09:10:07;;;;;;;20.30;16.63;;;13.60;1.00;;;;;;2609960;39;20503;-76
2022/03/02 09:12:33;;;;;;;18.37;15.67;;;13.80;1.00;;;;;;2610398;54;20419;-76
2022/03/02 09:14:59;;;;;;;19.83;16.80;;;13.90;1.00;;;;;;2610476;54;20423;-75
2022/03/02 09:17:26;;;;;;;18.20;16.30;;;13.80;1.00;;;;;;2609964;54;20407;-76
2022/03/02 09:19:53;;;;;;;18.20;15.53;;;13.70;1.00;;;;;;2609298;54;20526;-76
2022/03/02 09:22:22;;;;;;;15.03;13.43;;;13.70;1.00;;;;;;2610578;39;20854;-77
2022/03/02 09:24:50;;;;;;;16.00;13.80;;;13.90;1.00;;;;;;2608345;54;20402;-76
2022/03/02 09:27:18;;;;;;;15.13;13.53;;;13.40;1.00;;;;;;2609939;54;20434;-77
2022/03/02 09:29:46;;;;;;;15.33;13.90;;;13.40;1.00;;;;;;2608734;47;20424;-76
2022/03/02 09:32:14;;;;;;;16.00;14.40;;;13.80;1.00;;;;;;2608850;47;20547;-76
2022/03/02 09:34:45;;;;;;;16.90;12.73;;;14.40;1.00;;;;;;2610370;39;20808;-76
2022/03/02 09:37:15;;;;;;;15.47;13.90;;;14.70;1.00;;;;;;2609386;46;20437;-76
2022/03/02 09:39:43;;;;;;;14.63;13.23;;;15.40;1.00;;;;;;2608993;54;20562;-76
2022/03/02 09:42:15;;;;;;;13.53;12.30;;;15.00;1.00;;;;;;2608651;54;20459;-75
2022/03/02 09:45:10;;;;;;;15.67;14.07;;;14.90;1.00;;;;;;2610876;54;20430;-77
2022/03/02 09:47:44;;;;;;;18.63;13.30;;;14.50;1.00;;;;;;2608531;54;20423;-76
2022/03/02 09:50:15;;;;;;;14.40;13.00;;;14.50;1.00;;;;;;2609844;54;20403;-77
2022/03/02 09:52:44;;;;;;;14.60;13.10;;;14.60;1.00;;;;;;2610223;47;20439;-74
2022/03/02 09:55:13;;;;;;;15.77;13.70;;;14.80;1.00;;;;;;2610131;54;20996;-77
2022/03/02 09:57:47;;;;;;;14.93;13.33;;;15.00;1.00;;;;;;2610170;54;20392;-77
2022/03/02 10:00:16;;;;;;;13.60;12.40;;;14.70;1.00;;;;;;2610965;47;20435;-77
2022/03/02 10:02:44;;;;;;;13.87;12.43;;;14.50;1.00;;;;;;2611414;54;20400;-76
2022/03/02 10:05:15;;;;;;;14.03;12.80;;;15.00;1.00;;;;;;2610596;47;20427;-75
2022/03/02 10:07:58;;;;;;;13.90;12.67;;;15.60;1.00;;;;;;2610848;54;20443;-76
2022/03/02 10:10:26;;;;;;;14.93;13.57;;;14.90;1.00;;;;;;2610274;54;20435;-77
2022/03/02 10:12:55;;;;;;;14.40;13.10;;;15.60;1.00;;;;;;2611506;54;20400;-77
2022/03/02 10:15:22;;;;;;;13.33;12.13;;;15.90;1.00;;;;;;2610413;54;20415;-77
2022/03/02 10:17:51;;;;;;;13.67;12.37;;;16.00;1.00;;;;;;2608864;54;20599;-77
2022/03/02 10:20:20;;;;;;;13.90;12.43;;;16.30;1.00;;;;;;2609054;54;20980;-76
2022/03/02 10:22:46;;;;;;;14.00;12.70;;;16.30;1.00;;;;;;2608602;54;20472;-76
2022/03/02 10:25:17;;;;;;;16.83;13.77;;;16.20;1.00;;;;;;2610746;54;21060;-76
2022/03/02 10:28:01;;;;;;;17.70;13.90;;;16.30;1.00;;;;;;2612126;39;20834;-77
2022/03/02 10:30:36;;;;;;;13.90;12.50;;;15.90;1.00;;;;;;2613325;54;20467;-76
2022/03/02 10:33:21;;;;;;;14.60;13.30;;;15.50;1.00;;;;;;2612137;39;20470;-78
2022/03/02 10:36:08;;;;;;;14.03;13.00;;;15.80;1.00;;;;;;2612911;47;20404;-76
2022/03/02 10:38:43;;;;;;;14.70;13.20;;;15.60;1.00;;;;;;2612789;54;20420;-79
2022/03/02 10:41:09;;;;;;;15.47;13.50;;;15.10;1.00;;;;;;2612284;47;20419;-78
2022/03/02 10:43:40;;;;;;;14.67;13.13;;;14.70;1.00;;;;;;2612924;46;20538;-78
2022/03/02 10:46:09;;;;;;;16.73;15.03;;;15.20;1.00;;;;;;2612492;54;20420;-76
2022/03/02 10:48:47;;;;;;;14.80;13.50;;;15.80;1.00;;;;;;2611072;54;20502;-75
2022/03/02 10:51:14;;;;;;;15.47;13.03;;;16.60;1.00;;;;;;2610594;54;20963;-76
2022/03/02 10:53:41;;;;;;;15.97;14.50;;;16.50;1.00;;;;;;2610955;54;20431;-76
2022/03/02 10:56:08;;;;;;;16.83;15.10;;;15.90;1.00;;;;;;2610961;54;20419;-76
2022/03/02 10:58:36;;;;;;;15.77;14.20;;;15.60;1.00;;;;;;2611434;47;20991;-76
2022/03/02 11:01:03;;;;;;;15.83;14.53;;;16.00;1.00;;;;;;2607196;54;20420;-77
2022/03/02 11:03:37;;;;;;;16.93;15.33;;;16.10;1.00;;;;;;2611000;54;20431;-77
2022/03/02 11:06:08;;;;;;;15.47;14.27;;;16.10;1.00;;;;;;2609452;54;20422;-77
2022/03/02 11:08:36;;;;;;;16.73;15.23;;;16.10;1.00;;;;;;2610257;54;20542;-77
2022/03/02 11:11:04;;;;;;;17.80;16.10;;;16.30;1.00;;;;;;2610654;54;20603;-77
2022/03/02 11:13:31;;;;;;;16.60;15.10;;;16.20;1.00;;;;;;2609504;47;20431;-77
2022/03/02 11:16:00;;;;;;;16.00;14.63;;;17.00;1.00;;;;;;2611122;54;20403;-77
2022/03/02 11:18:40;;;;;;;17.13;15.57;;;17.70;1.00;;;;;;2611220;54;20495;-76
2022/03/02 11:21:11;;;;;;;18.17;16.50;;;17.70;1.00;;;;;;2607767;39;20782;-78
2022/03/02 11:23:44;;;;;;;18.57;16.83;;;17.50;1.00;;;;;;2609716;46;20451;-77
2022/03/02 11:26:16;;;;;;;16.60;15.30;;;17.20;1.00;;;;;;2611192;47;20419;-77
2022/03/02 11:28:50;;;;;;;18.70;17.07;;;17.40;1.00;;;;;;2610053;54;20444;-77
2022/03/02 11:31:30;;;;;;;17.80;16.40;;;17.80;1.00;;;;;;2610411;54;20433;-77
2022/03/02 11:34:18;;;;;;;19.70;17.77;;;17.20;1.00;;;;;;2610277;54;20408;-76
2022/03/02 11:36:50;;;;;;;18.80;17.00;;;16.80;1.00;;;;;;2610553;47;20412;-77
2022/03/02 11:39:18;;;;;;;17.07;15.43;;;16.70;1.00;;;;;;2610673;54;20403;-76
2022/03/02 11:41:51;;;;;;;16.40;15.00;;;16.60;1.00;;;;;;2609208;47;20428;-78
2022/03/02 11:44:30;;;;;;;17.57;15.97;;;16.70;1.00;;;;;;2610064;54;20411;-77
2022/03/02 11:47:03;;;;;;;18.00;16.20;;;16.10;1.00;;;;;;2610641;54;20892;-77
2022/03/02 11:49:47;;;;;;;17.57;16.07;;;16.20;1.00;;;;;;2609304;39;21216;-76
2022/03/02 11:52:16;;;;;;;20.90;15.80;;;16.50;1.00;;;;;;2613302;39;20835;-77
2022/03/02 11:55:08;;;;;;;17.27;15.87;;;16.50;1.00;;;;;;2611584;47;20419;-78
2022/03/02 11:57:46;;;;;;;17.00;15.50;;;16.50;1.00;;;;;;2613917;39;21342;-77
2022/03/02 12:00:26;;;;;;;16.17;14.67;;;16.80;1.00;;;;;;2610139;54;20415;-77
2022/03/02 12:02:58;;;;;;;16.97;15.50;;;17.20;1.00;;;;;;2609571;54;20506;-76
2022/03/02 12:05:27;;;;;;;16.90;15.30;;;17.50;1.00;;;;;;2610095;54;20444;-76
2022/03/02 12:08:23;;;;;;;17.43;15.63;;;17.70;1.00;;;;;;2610124;54;20452;-77
2022/03/02 12:10:54;;;;;;;18.03;16.27;;;16.60;1.00;;;;;;2610064;47;20416;-77
2022/03/02 12:13:20;;;;;;;17.73;16.27;;;16.60;1.00;;;;;;2611020;39;20914;-76
2022/03/02 12:15:53;;;;;;;16.93;15.50;;;16.80;1.00;;;;;;2610820;54;20423;-77
2022/03/02 12:18:20;;;;;;;17.20;15.80;;;16.40;1.00;;;;;;2609771;47;20412;-77
2022/03/02 12:20:49;;;;;;;16.37;15.07;;;16.40;1.00;;;;;;2610021;46;20442;-76
2022/03/02 12:23:26;;;;;;;16.27;14.97;;;16.60;1.00;;;;;;2611355;46;20453;-77
2022/03/02 12:25:54;;;;;;;16.53;14.97;;;16.60;1.00;;;;;;2611330;47;20829;-77
2022/03/02 12:28:22;;;;;;;17.33;15.83;;;16.90;1.00;;;;;;2610664;54;20424;-77
2022/03/02 12:30:48;;;;;;;16.43;15.13;;;17.00;1.00;;;;;;2610110;54;20407;-77
2022/03/02 12:33:18;;;;;;;16.20;14.90;;;17.30;1.00;;;;;;2610058;47;20427;-76
2022/03/02 12:35:44;;;;;;;16.83;15.40;;;17.60;1.00;;;;;;2610889;54;20412;-77
2022/03/02 12:38:10;;;;;;;16.60;15.10;;;17.40;1.00;;;;;;2609356;47;20516;-77
2022/03/02 12:40:41;;;;;;;16.93;15.20;;;17.40;1.00;;;;;;2608851;47;20614;-78
2022/03/02 12:43:10;;;;;;;17.00;15.57;;;17.40;1.00;;;;;;2609326;39;20848;-77
2022/03/02 12:45:40;;;;;;;17.53;15.87;;;17.30;1.00;;;;;;2607823;46;20992;-77